首页
METAR-TAF:

METAR-TAF

机场 :

High Level, 艾伯塔, 加拿大

纬度: 58-37N, 经度: 117-10W, 海拔: 338米

当前天气观测

该预报发布于1小时和10分钟前的20:00 UTC
风速11节,风向,有时为17节阵风,在南转南东南转西南之间变化
温度 24°C
湿度 69%
气压 1004 hPa
能見度: 24.1公里
少量云层高于3600英尺
多云层高于25000英尺

METAR: CYOJ 032000Z 18011G17KT 150V210 15SM FEW036 BKN250 24/18 A2964 RMK CU2CS5 SLP040 DENSITY ALT 2700FT

时间: 15:10 (21:10 UTC)

预报

该预报发布于2小时和32分钟前的18:38 UTC
预报有效从03日的 19点(UTC)到 04日的 07点(UTC)
风速10节,风向
能見度: 10公里
少量云层高于2000英尺
多云层高于25000英尺
从 03日的 2200点(UTC)
风速10节,风向南转西南
能見度: 10公里
多云层高于6000英尺
短暂存在
从 03日的 22点(UTC)到 04日的 04点(UTC)
能見度: 10公里
多云层高于4000英尺, 积雨云.
小阵雨, 附近有雷暴
从 04日的 0400点(UTC)
风速6节,风向西北
能見度: 10公里
散云层高于6000英尺

TAF: CYOJ 031838Z 0319/0407 18010KT P6SM FEW020 BKN250 FM032200 20010KT P6SM BKN060 TEMPO 0322/0404 P6SM -SHRA VCTS BKN040CB FM040400 31006KT P6SM SCT060 RMK NXT FCST BY 040100Z

超过4000个机场的气象观测和天气预报(METAR&TAF报告)。

可查询的气象台以黄色和红色小点在地图上表示。

将鼠标移到小点上方,可查看气象台名称。

然后点击查看天气观测和预报。

如需切换地图:点击带黑十字的绿色按钮放大地图;点击带横线的绿色按钮缩小地图;或者点击绿色箭头查看邻近地区的地图。


METAR-TAF: